sensor_id;sensor_type;location;lat;lon;timestamp;temperature;humidity
62363;DHT22;48396;48.426;1.500;2023-02-28T00:00:09;7.50;58.40
62363;DHT22;48396;48.426;1.500;2023-02-28T00:02:40;7.40;58.30
62363;DHT22;48396;48.426;1.500;2023-02-28T00:05:07;7.20;59.10
62363;DHT22;48396;48.426;1.500;2023-02-28T00:07:33;7.10;59.10
62363;DHT22;48396;48.426;1.500;2023-02-28T00:09:59;6.90;59.60
62363;DHT22;48396;48.426;1.500;2023-02-28T00:12:25;6.80;60.00
62363;DHT22;48396;48.426;1.500;2023-02-28T00:14:51;6.90;59.70
62363;DHT22;48396;48.426;1.500;2023-02-28T00:17:17;6.90;60.00
62363;DHT22;48396;48.426;1.500;2023-02-28T00:19:47;6.80;60.30
62363;DHT22;48396;48.426;1.500;2023-02-28T00:22:14;6.80;60.20
62363;DHT22;48396;48.426;1.500;2023-02-28T00:24:39;6.80;60.40
62363;DHT22;48396;48.426;1.500;2023-02-28T00:27:05;6.80;60.40
62363;DHT22;48396;48.426;1.500;2023-02-28T00:29:31;6.90;60.30
62363;DHT22;48396;48.426;1.500;2023-02-28T00:31:56;7.00;60.10
62363;DHT22;48396;48.426;1.500;2023-02-28T00:34:22;6.90;60.20
62363;DHT22;48396;48.426;1.500;2023-02-28T00:36:48;6.90;60.40
62363;DHT22;48396;48.426;1.500;2023-02-28T00:39:16;6.80;60.50
62363;DHT22;48396;48.426;1.500;2023-02-28T00:41:42;6.80;60.70
62363;DHT22;48396;48.426;1.500;2023-02-28T00:44:08;6.70;60.90
62363;DHT22;48396;48.426;1.500;2023-02-28T00:46:34;6.70;61.10
62363;DHT22;48396;48.426;1.500;2023-02-28T00:49:00;6.60;61.40
62363;DHT22;48396;48.426;1.500;2023-02-28T00:51:26;6.50;61.50
62363;DHT22;48396;48.426;1.500;2023-02-28T00:53:52;6.50;61.60
62363;DHT22;48396;48.426;1.500;2023-02-28T00:56:17;6.40;62.20
62363;DHT22;48396;48.426;1.500;2023-02-28T00:58:43;6.50;61.80
62363;DHT22;48396;48.426;1.500;2023-02-28T01:01:09;6.50;61.80
62363;DHT22;48396;48.426;1.500;2023-02-28T01:03:35;6.60;61.70
62363;DHT22;48396;48.426;1.500;2023-02-28T01:06:01;6.60;61.60
62363;DHT22;48396;48.426;1.500;2023-02-28T01:08:26;6.70;61.60
62363;DHT22;48396;48.426;1.500;2023-02-28T01:10:53;6.70;61.60
62363;DHT22;48396;48.426;1.500;2023-02-28T01:13:19;6.60;61.60
62363;DHT22;48396;48.426;1.500;2023-02-28T01:15:54;6.50;61.80
62363;DHT22;48396;48.426;1.500;2023-02-28T01:18:20;6.30;62.60
62363;DHT22;48396;48.426;1.500;2023-02-28T01:20:47;6.10;63.10
62363;DHT22;48396;48.426;1.500;2023-02-28T01:23:13;6.10;63.20
62363;DHT22;48396;48.426;1.500;2023-02-28T01:25:39;6.20;63.20
62363;DHT22;48396;48.426;1.500;2023-02-28T01:28:05;6.20;63.10
62363;DHT22;48396;48.426;1.500;2023-02-28T01:30:31;6.20;63.00
62363;DHT22;48396;48.426;1.500;2023-02-28T01:32:57;6.20;63.20
62363;DHT22;48396;48.426;1.500;2023-02-28T01:35:23;6.10;63.30
62363;DHT22;48396;48.426;1.500;2023-02-28T01:37:49;6.10;63.60
62363;DHT22;48396;48.426;1.500;2023-02-28T01:40:15;6.10;63.40
62363;DHT22;48396;48.426;1.500;2023-02-28T01:42:41;6.20;63.40
62363;DHT22;48396;48.426;1.500;2023-02-28T01:47:48;6.20;63.20
62363;DHT22;48396;48.426;1.500;2023-02-28T01:50:20;6.30;63.10
62363;DHT22;48396;48.426;1.500;2023-02-28T01:52:49;6.10;63.60
62363;DHT22;48396;48.426;1.500;2023-02-28T01:55:17;5.90;63.90
62363;DHT22;48396;48.426;1.500;2023-02-28T01:57:48;6.00;64.00
62363;DHT22;48396;48.426;1.500;2023-02-28T02:00:16;6.00;64.10
62363;DHT22;48396;48.426;1.500;2023-02-28T02:02:45;6.00;64.20
62363;DHT22;48396;48.426;1.500;2023-02-28T02:05:30;5.90;64.30
62363;DHT22;48396;48.426;1.500;2023-02-28T02:08:01;6.00;64.30
62363;DHT22;48396;48.426;1.500;2023-02-28T02:10:32;6.00;64.00
62363;DHT22;48396;48.426;1.500;2023-02-28T02:41:02;6.00;64.30
62363;DHT22;48396;48.426;1.500;2023-02-28T02:43:34;6.00;64.30
62363;DHT22;48396;48.426;1.500;2023-02-28T02:46:14;6.00;64.40
62363;DHT22;48396;48.426;1.500;2023-02-28T02:48:43;5.80;64.70
62363;DHT22;48396;48.426;1.500;2023-02-28T02:51:14;5.90;64.80
62363;DHT22;48396;48.426;1.500;2023-02-28T02:53:46;5.80;64.80
62363;DHT22;48396;48.426;1.500;2023-02-28T02:56:19;6.00;64.50
62363;DHT22;48396;48.426;1.500;2023-02-28T02:58:49;6.00;64.50
62363;DHT22;48396;48.426;1.500;2023-02-28T03:01:20;6.00;64.40
62363;DHT22;48396;48.426;1.500;2023-02-28T03:03:58;5.80;65.00
62363;DHT22;48396;48.426;1.500;2023-02-28T03:06:25;5.60;65.60
62363;DHT22;48396;48.426;1.500;2023-02-28T03:08:51;5.80;65.10
62363;DHT22;48396;48.426;1.500;2023-02-28T03:11:17;5.80;65.20
62363;DHT22;48396;48.426;1.500;2023-02-28T03:16:47;6.00;64.60
62363;DHT22;48396;48.426;1.500;2023-02-28T03:19:45;6.20;64.00
62363;DHT22;48396;48.426;1.500;2023-02-28T03:30:26;6.10;64.10
62363;DHT22;48396;48.426;1.500;2023-02-28T03:32:57;6.30;63.80
62363;DHT22;48396;48.426;1.500;2023-02-28T03:35:28;6.20;63.70
62363;DHT22;48396;48.426;1.500;2023-02-28T03:38:47;6.10;64.10
62363;DHT22;48396;48.426;1.500;2023-02-28T03:41:24;6.20;63.90
62363;DHT22;48396;48.426;1.500;2023-02-28T03:47:13;6.10;63.90
62363;DHT22;48396;48.426;1.500;2023-02-28T03:49:49;6.10;64.10
62363;DHT22;48396;48.426;1.500;2023-02-28T03:52:18;6.10;64.00
62363;DHT22;48396;48.426;1.500;2023-02-28T03:54:52;6.20;64.00
62363;DHT22;48396;48.426;1.500;2023-02-28T03:57:37;6.00;64.30
62363;DHT22;48396;48.426;1.500;2023-02-28T04:00:18;6.00;64.20
62363;DHT22;48396;48.426;1.500;2023-02-28T04:02:45;6.00;64.50
62363;DHT22;48396;48.426;1.500;2023-02-28T04:05:11;5.80;64.70
62363;DHT22;48396;48.426;1.500;2023-02-28T04:07:37;5.80;64.90
62363;DHT22;48396;48.426;1.500;2023-02-28T04:10:04;5.80;64.60
62363;DHT22;48396;48.426;1.500;2023-02-28T04:12:30;6.10;64.20
62363;DHT22;48396;48.426;1.500;2023-02-28T04:14:56;6.10;63.90
62363;DHT22;48396;48.426;1.500;2023-02-28T04:17:22;6.10;63.90
62363;DHT22;48396;48.426;1.500;2023-02-28T04:19:48;6.10;63.90
62363;DHT22;48396;48.426;1.500;2023-02-28T04:22:15;6.20;63.70
62363;DHT22;48396;48.426;1.500;2023-02-28T04:24:42;6.00;64.00
62363;DHT22;48396;48.426;1.500;2023-02-28T04:27:09;6.00;64.10
62363;DHT22;48396;48.426;1.500;2023-02-28T04:29:35;6.00;64.10
62363;DHT22;48396;48.426;1.500;2023-02-28T04:32:27;6.00;64.30
62363;DHT22;48396;48.426;1.500;2023-02-28T04:34:52;6.00;64.10
62363;DHT22;48396;48.426;1.500;2023-02-28T04:37:19;5.90;64.20
62363;DHT22;48396;48.426;1.500;2023-02-28T04:39:45;5.80;64.50
62363;DHT22;48396;48.426;1.500;2023-02-28T04:42:11;5.60;65.40
62363;DHT22;48396;48.426;1.500;2023-02-28T04:44:37;5.60;65.50
62363;DHT22;48396;48.426;1.500;2023-02-28T04:47:04;5.50;65.40
62363;DHT22;48396;48.426;1.500;2023-02-28T04:49:31;5.40;65.70
62363;DHT22;48396;48.426;1.500;2023-02-28T04:51:57;5.50;65.60
62363;DHT22;48396;48.426;1.500;2023-02-28T04:54:22;5.60;65.40
62363;DHT22;48396;48.426;1.500;2023-02-28T04:56:48;5.40;65.70
62363;DHT22;48396;48.426;1.500;2023-02-28T04:59:15;5.50;65.70
62363;DHT22;48396;48.426;1.500;2023-02-28T05:01:46;5.50;65.70
62363;DHT22;48396;48.426;1.500;2023-02-28T05:04:12;5.30;66.20
62363;DHT22;48396;48.426;1.500;2023-02-28T05:06:38;5.30;66.40
62363;DHT22;48396;48.426;1.500;2023-02-28T05:09:04;5.30;66.20
62363;DHT22;48396;48.426;1.500;2023-02-28T05:11:32;5.30;66.20
62363;DHT22;48396;48.426;1.500;2023-02-28T05:14:03;5.00;66.90
62363;DHT22;48396;48.426;1.500;2023-02-28T05:16:29;5.00;67.10
62363;DHT22;48396;48.426;1.500;2023-02-28T05:18:55;4.70;67.80
62363;DHT22;48396;48.426;1.500;2023-02-28T05:23:50;5.00;67.30
62363;DHT22;48396;48.426;1.500;2023-02-28T05:26:15;5.10;67.00
62363;DHT22;48396;48.426;1.500;2023-02-28T05:28:41;5.10;66.70
62363;DHT22;48396;48.426;1.500;2023-02-28T05:31:10;5.00;67.10
62363;DHT22;48396;48.426;1.500;2023-02-28T05:33:36;5.10;67.00
62363;DHT22;48396;48.426;1.500;2023-02-28T05:36:02;5.00;67.20
62363;DHT22;48396;48.426;1.500;2023-02-28T05:38:28;5.00;67.10
62363;DHT22;48396;48.426;1.500;2023-02-28T05:40:54;4.90;67.40
62363;DHT22;48396;48.426;1.500;2023-02-28T05:43:20;4.90;67.40
62363;DHT22;48396;48.426;1.500;2023-02-28T05:45:46;4.90;67.50
62363;DHT22;48396;48.426;1.500;2023-02-28T05:48:11;4.90;67.50
62363;DHT22;48396;48.426;1.500;2023-02-28T05:50:37;4.80;67.50
62363;DHT22;48396;48.426;1.500;2023-02-28T05:53:03;4.90;67.60
62363;DHT22;48396;48.426;1.500;2023-02-28T05:55:29;4.90;67.20
62363;DHT22;48396;48.426;1.500;2023-02-28T05:57:55;4.90;67.10
62363;DHT22;48396;48.426;1.500;2023-02-28T06:00:23;5.00;67.10
62363;DHT22;48396;48.426;1.500;2023-02-28T06:02:49;4.90;67.30
62363;DHT22;48396;48.426;1.500;2023-02-28T06:05:17;4.90;67.30
62363;DHT22;48396;48.426;1.500;2023-02-28T06:07:44;5.00;66.90
62363;DHT22;48396;48.426;1.500;2023-02-28T06:10:10;5.10;66.70
62363;DHT22;48396;48.426;1.500;2023-02-28T06:12:37;5.10;67.00
62363;DHT22;48396;48.426;1.500;2023-02-28T06:15:04;5.00;66.70
62363;DHT22;48396;48.426;1.500;2023-02-28T06:17:30;4.90;66.90
62363;DHT22;48396;48.426;1.500;2023-02-28T06:19:56;4.90;66.90
62363;DHT22;48396;48.426;1.500;2023-02-28T06:22:22;4.90;66.90
62363;DHT22;48396;48.426;1.500;2023-02-28T06:24:48;5.00;66.50
62363;DHT22;48396;48.426;1.500;2023-02-28T06:27:14;4.80;66.90
62363;DHT22;48396;48.426;1.500;2023-02-28T06:29:40;4.50;67.60
62363;DHT22;48396;48.426;1.500;2023-02-28T06:32:06;4.30;68.20
62363;DHT22;48396;48.426;1.500;2023-02-28T06:34:32;4.60;67.70
62363;DHT22;48396;48.426;1.500;2023-02-28T06:37:00;4.50;67.90
62363;DHT22;48396;48.426;1.500;2023-02-28T06:39:29;4.50;68.10
62363;DHT22;48396;48.426;1.500;2023-02-28T06:41:54;4.40;68.30
62363;DHT22;48396;48.426;1.500;2023-02-28T06:44:21;4.40;68.20
62363;DHT22;48396;48.426;1.500;2023-02-28T06:46:48;3.90;69.30
62363;DHT22;48396;48.426;1.500;2023-02-28T06:49:14;4.00;69.30
62363;DHT22;48396;48.426;1.500;2023-02-28T06:51:42;4.10;69.10
62363;DHT22;48396;48.426;1.500;2023-02-28T06:54:12;4.10;69.10
62363;DHT22;48396;48.426;1.500;2023-02-28T06:56:40;4.00;69.60
62363;DHT22;48396;48.426;1.500;2023-02-28T06:59:06;3.90;69.90
62363;DHT22;48396;48.426;1.500;2023-02-28T07:01:32;3.80;70.30
62363;DHT22;48396;48.426;1.500;2023-02-28T07:03:59;3.70;70.40
62363;DHT22;48396;48.426;1.500;2023-02-28T07:06:26;3.70;70.90
62363;DHT22;48396;48.426;1.500;2023-02-28T07:08:53;3.70;72.20
62363;DHT22;48396;48.426;1.500;2023-02-28T07:11:21;3.90;71.60
62363;DHT22;48396;48.426;1.500;2023-02-28T07:13:52;4.20;71.30
62363;DHT22;48396;48.426;1.500;2023-02-28T07:16:19;4.50;72.90
62363;DHT22;48396;48.426;1.500;2023-02-28T07:18:45;4.90;70.40
62363;DHT22;48396;48.426;1.500;2023-02-28T07:21:11;5.10;69.10
62363;DHT22;48396;48.426;1.500;2023-02-28T07:23:38;5.00;69.10
62363;DHT22;48396;48.426;1.500;2023-02-28T07:26:11;5.10;68.50
62363;DHT22;48396;48.426;1.500;2023-02-28T07:28:41;5.10;68.40
62363;DHT22;48396;48.426;1.500;2023-02-28T07:31:09;5.20;68.50
62363;DHT22;48396;48.426;1.500;2023-02-28T07:33:35;5.20;68.30
62363;DHT22;48396;48.426;1.500;2023-02-28T07:36:08;5.10;68.40
62363;DHT22;48396;48.426;1.500;2023-02-28T07:38:35;5.20;68.30
62363;DHT22;48396;48.426;1.500;2023-02-28T07:41:01;5.40;67.90
62363;DHT22;48396;48.426;1.500;2023-02-28T07:43:30;5.50;68.20
62363;DHT22;48396;48.426;1.500;2023-02-28T07:46:02;5.50;68.00
62363;DHT22;48396;48.426;1.500;2023-02-28T07:48:28;5.70;67.70
62363;DHT22;48396;48.426;1.500;2023-02-28T07:50:55;5.70;67.60
62363;DHT22;48396;48.426;1.500;2023-02-28T07:53:21;5.70;67.20
62363;DHT22;48396;48.426;1.500;2023-02-28T07:55:47;5.70;67.70
62363;DHT22;48396;48.426;1.500;2023-02-28T07:58:13;5.60;67.70
62363;DHT22;48396;48.426;1.500;2023-02-28T08:00:39;5.60;67.80
62363;DHT22;48396;48.426;1.500;2023-02-28T08:03:05;5.50;67.90
62363;DHT22;48396;48.426;1.500;2023-02-28T08:05:31;5.50;68.20
62363;DHT22;48396;48.426;1.500;2023-02-28T08:07:57;5.40;68.40
62363;DHT22;48396;48.426;1.500;2023-02-28T08:10:23;5.50;68.30
62363;DHT22;48396;48.426;1.500;2023-02-28T08:12:49;5.40;69.10
62363;DHT22;48396;48.426;1.500;2023-02-28T08:15:15;5.40;68.60
62363;DHT22;48396;48.426;1.500;2023-02-28T08:17:41;5.40;68.80
62363;DHT22;48396;48.426;1.500;2023-02-28T08:20:07;5.60;68.50
62363;DHT22;48396;48.426;1.500;2023-02-28T08:22:35;5.70;68.00
62363;DHT22;48396;48.426;1.500;2023-02-28T08:25:01;5.70;68.20
62363;DHT22;48396;48.426;1.500;2023-02-28T08:27:27;5.70;68.40
62363;DHT22;48396;48.426;1.500;2023-02-28T08:29:53;5.80;68.30
62363;DHT22;48396;48.426;1.500;2023-02-28T08:32:19;5.50;69.10
62363;DHT22;48396;48.426;1.500;2023-02-28T08:34:45;5.50;69.30
62363;DHT22;48396;48.426;1.500;2023-02-28T08:37:10;5.60;69.30
62363;DHT22;48396;48.426;1.500;2023-02-28T08:39:36;5.70;69.30
62363;DHT22;48396;48.426;1.500;2023-02-28T08:42:03;5.70;69.40
62363;DHT22;48396;48.426;1.500;2023-02-28T08:44:29;5.60;70.00
62363;DHT22;48396;48.426;1.500;2023-02-28T08:46:55;5.70;69.90
62363;DHT22;48396;48.426;1.500;2023-02-28T08:49:20;5.70;70.00
62363;DHT22;48396;48.426;1.500;2023-02-28T08:51:46;5.60;70.20
62363;DHT22;48396;48.426;1.500;2023-02-28T08:54:12;5.50;70.30
62363;DHT22;48396;48.426;1.500;2023-02-28T08:56:38;5.40;70.80
62363;DHT22;48396;48.426;1.500;2023-02-28T08:59:04;5.60;70.80
62363;DHT22;48396;48.426;1.500;2023-02-28T09:01:30;5.70;70.80
62363;DHT22;48396;48.426;1.500;2023-02-28T09:03:58;5.80;70.40
62363;DHT22;48396;48.426;1.500;2023-02-28T09:06:28;5.70;70.60
62363;DHT22;48396;48.426;1.500;2023-02-28T09:08:57;5.80;70.30
62363;DHT22;48396;48.426;1.500;2023-02-28T09:11:27;5.90;69.80
62363;DHT22;48396;48.426;1.500;2023-02-28T09:13:53;6.00;69.40
62363;DHT22;48396;48.426;1.500;2023-02-28T09:16:21;6.00;69.60
62363;DHT22;48396;48.426;1.500;2023-02-28T09:18:47;5.90;69.70
62363;DHT22;48396;48.426;1.500;2023-02-28T09:21:15;6.10;69.30
62363;DHT22;48396;48.426;1.500;2023-02-28T09:23:42;6.30;69.80
62363;DHT22;48396;48.426;1.500;2023-02-28T09:26:14;6.40;69.00
62363;DHT22;48396;48.426;1.500;2023-02-28T09:28:40;6.60;69.00
62363;DHT22;48396;48.426;1.500;2023-02-28T09:31:05;6.70;68.40
62363;DHT22;48396;48.426;1.500;2023-02-28T09:33:32;6.90;68.70
62363;DHT22;48396;48.426;1.500;2023-02-28T09:36:00;6.90;67.60
62363;DHT22;48396;48.426;1.500;2023-02-28T09:38:27;7.00;67.00
62363;DHT22;48396;48.426;1.500;2023-02-28T09:41:00;6.90;66.60
62363;DHT22;48396;48.426;1.500;2023-02-28T09:43:33;7.00;66.40
62363;DHT22;48396;48.426;1.500;2023-02-28T09:46:14;7.10;66.40
62363;DHT22;48396;48.426;1.500;2023-02-28T09:48:45;6.90;65.70
62363;DHT22;48396;48.426;1.500;2023-02-28T09:51:33;6.80;66.00
62363;DHT22;48396;48.426;1.500;2023-02-28T09:54:00;6.70;66.40
62363;DHT22;48396;48.426;1.500;2023-02-28T09:56:41;6.80;66.70
62363;DHT22;48396;48.426;1.500;2023-02-28T10:05:10;6.90;64.80
62363;DHT22;48396;48.426;1.500;2023-02-28T10:10:37;6.70;64.20
62363;DHT22;48396;48.426;1.500;2023-02-28T10:16:12;7.10;63.70
62363;DHT22;48396;48.426;1.500;2023-02-28T10:21:39;7.20;62.30
62363;DHT22;48396;48.426;1.500;2023-02-28T10:26:38;7.40;61.90
62363;DHT22;48396;48.426;1.500;2023-02-28T10:29:04;7.30;61.50
62363;DHT22;48396;48.426;1.500;2023-02-28T10:31:30;7.30;61.10
62363;DHT22;48396;48.426;1.500;2023-02-28T10:33:56;7.30;61.20
62363;DHT22;48396;48.426;1.500;2023-02-28T10:36:22;7.40;60.60
62363;DHT22;48396;48.426;1.500;2023-02-28T10:38:48;7.50;60.40
62363;DHT22;48396;48.426;1.500;2023-02-28T10:41:32;7.50;60.00
62363;DHT22;48396;48.426;1.500;2023-02-28T10:44:21;7.50;59.30
62363;DHT22;48396;48.426;1.500;2023-02-28T10:46:48;7.60;59.70
62363;DHT22;48396;48.426;1.500;2023-02-28T10:49:21;7.70;60.40
62363;DHT22;48396;48.426;1.500;2023-02-28T10:51:49;7.80;59.40
62363;DHT22;48396;48.426;1.500;2023-02-28T10:54:39;8.00;59.00
62363;DHT22;48396;48.426;1.500;2023-02-28T10:59:43;8.00;57.90
62363;DHT22;48396;48.426;1.500;2023-02-28T11:02:35;8.00;57.90
62363;DHT22;48396;48.426;1.500;2023-02-28T11:05:20;8.00;58.30
62363;DHT22;48396;48.426;1.500;2023-02-28T11:07:55;8.10;57.50
62363;DHT22;48396;48.426;1.500;2023-02-28T11:10:25;8.00;58.00
62363;DHT22;48396;48.426;1.500;2023-02-28T11:12:55;8.10;58.00
62363;DHT22;48396;48.426;1.500;2023-02-28T11:15:22;8.30;57.40
62363;DHT22;48396;48.426;1.500;2023-02-28T11:18:00;8.40;57.70
62363;DHT22;48396;48.426;1.500;2023-02-28T11:20:29;8.50;56.70
62363;DHT22;48396;48.426;1.500;2023-02-28T11:23:03;8.60;57.10
62363;DHT22;48396;48.426;1.500;2023-02-28T11:25:35;8.50;55.20
62363;DHT22;48396;48.426;1.500;2023-02-28T11:28:04;8.30;55.40
62363;DHT22;48396;48.426;1.500;2023-02-28T11:30:40;8.30;55.60
62363;DHT22;48396;48.426;1.500;2023-02-28T11:36:31;8.70;55.30
62363;DHT22;48396;48.426;1.500;2023-02-28T11:39:00;8.80;53.80
62363;DHT22;48396;48.426;1.500;2023-02-28T11:47:09;9.20;54.10
62363;DHT22;48396;48.426;1.500;2023-02-28T11:50:07;9.40;54.10
62363;DHT22;48396;48.426;1.500;2023-02-28T11:55:36;9.80;53.90
62363;DHT22;48396;48.426;1.500;2023-02-28T12:06:42;9.70;51.70
62363;DHT22;48396;48.426;1.500;2023-02-28T12:09:32;9.60;51.60
62363;DHT22;48396;48.426;1.500;2023-02-28T12:13:07;9.40;51.60
62363;DHT22;48396;48.426;1.500;2023-02-28T12:15:18;9.50;52.30
62363;DHT22;48396;48.426;1.500;2023-02-28T12:17:51;9.70;52.20
62363;DHT22;48396;48.426;1.500;2023-02-28T12:23:21;9.30;52.20
62363;DHT22;48396;48.426;1.500;2023-02-28T12:26:00;9.30;52.70
62363;DHT22;48396;48.426;1.500;2023-02-28T12:28:34;9.40;53.20
62363;DHT22;48396;48.426;1.500;2023-02-28T12:31:06;9.50;53.00
62363;DHT22;48396;48.426;1.500;2023-02-28T12:33:38;9.40;53.00
62363;DHT22;48396;48.426;1.500;2023-02-28T12:36:12;9.40;53.20
62363;DHT22;48396;48.426;1.500;2023-02-28T12:38:47;9.60;54.00
62363;DHT22;48396;48.426;1.500;2023-02-28T12:41:19;9.80;54.20
62363;DHT22;48396;48.426;1.500;2023-02-28T12:44:17;10.00;52.90
62363;DHT22;48396;48.426;1.500;2023-02-28T12:46:48;10.00;52.50
62363;DHT22;48396;48.426;1.500;2023-02-28T12:49:23;10.10;52.80
62363;DHT22;48396;48.426;1.500;2023-02-28T12:51:50;10.20;52.20
62363;DHT22;48396;48.426;1.500;2023-02-28T12:54:48;10.50;51.70
62363;DHT22;48396;48.426;1.500;2023-02-28T13:00:04;10.40;51.50
62363;DHT22;48396;48.426;1.500;2023-02-28T13:07:20;10.20;50.70
62363;DHT22;48396;48.426;1.500;2023-02-28T13:09:13;10.30;50.90
62363;DHT22;48396;48.426;1.500;2023-02-28T13:17:10;9.70;51.10
62363;DHT22;48396;48.426;1.500;2023-02-28T13:24:57;9.90;50.70
62363;DHT22;48396;48.426;1.500;2023-02-28T13:27:33;10.00;50.50
62363;DHT22;48396;48.426;1.500;2023-02-28T13:30:00;10.10;50.10
62363;DHT22;48396;48.426;1.500;2023-02-28T13:32:34;10.40;50.80
62363;DHT22;48396;48.426;1.500;2023-02-28T13:37:41;10.70;49.30
62363;DHT22;48396;48.426;1.500;2023-02-28T13:42:47;10.70;49.10
62363;DHT22;48396;48.426;1.500;2023-02-28T13:45:30;11.00;49.40
62363;DHT22;48396;48.426;1.500;2023-02-28T13:47:59;11.20;49.10
62363;DHT22;48396;48.426;1.500;2023-02-28T14:01:32;11.00;47.70
62363;DHT22;48396;48.426;1.500;2023-02-28T14:06:54;11.00;47.70
62363;DHT22;48396;48.426;1.500;2023-02-28T14:09:31;11.10;48.00
62363;DHT22;48396;48.426;1.500;2023-02-28T14:18:23;11.00;46.90
62363;DHT22;48396;48.426;1.500;2023-02-28T14:20:53;11.00;47.10
62363;DHT22;48396;48.426;1.500;2023-02-28T14:34:24;11.60;47.40
62363;DHT22;48396;48.426;1.500;2023-02-28T14:36:52;11.60;47.50
62363;DHT22;48396;48.426;1.500;2023-02-28T14:39:24;11.60;46.80
62363;DHT22;48396;48.426;1.500;2023-02-28T14:41:51;11.30;46.50
62363;DHT22;48396;48.426;1.500;2023-02-28T14:44:19;11.10;47.00
62363;DHT22;48396;48.426;1.500;2023-02-28T14:46:59;11.10;46.80
62363;DHT22;48396;48.426;1.500;2023-02-28T14:49:41;11.00;46.70
62363;DHT22;48396;48.426;1.500;2023-02-28T14:54:43;11.10;47.00
62363;DHT22;48396;48.426;1.500;2023-02-28T14:57:25;11.20;46.40
62363;DHT22;48396;48.426;1.500;2023-02-28T15:00:31;11.20;46.50
62363;DHT22;48396;48.426;1.500;2023-02-28T15:02:57;11.40;46.00
62363;DHT22;48396;48.426;1.500;2023-02-28T15:05:30;11.30;45.70
62363;DHT22;48396;48.426;1.500;2023-02-28T15:08:15;11.20;45.70
62363;DHT22;48396;48.426;1.500;2023-02-28T15:10:44;11.20;45.80
62363;DHT22;48396;48.426;1.500;2023-02-28T15:13:13;11.30;46.30
62363;DHT22;48396;48.426;1.500;2023-02-28T15:20:53;11.70;45.50
62363;DHT22;48396;48.426;1.500;2023-02-28T15:23:20;11.70;45.10
62363;DHT22;48396;48.426;1.500;2023-02-28T15:25:47;11.60;44.90
62363;DHT22;48396;48.426;1.500;2023-02-28T15:28:18;11.50;45.50
62363;DHT22;48396;48.426;1.500;2023-02-28T15:30:57;11.30;44.80
62363;DHT22;48396;48.426;1.500;2023-02-28T15:33:29;11.20;45.60
62363;DHT22;48396;48.426;1.500;2023-02-28T15:38:36;11.60;45.20
62363;DHT22;48396;48.426;1.500;2023-02-28T15:41:03;11.60;45.10
62363;DHT22;48396;48.426;1.500;2023-02-28T15:43:36;11.70;45.00
62363;DHT22;48396;48.426;1.500;2023-02-28T15:46:06;11.70;44.70
62363;DHT22;48396;48.426;1.500;2023-02-28T15:49:17;11.50;44.30
62363;DHT22;48396;48.426;1.500;2023-02-28T15:51:34;11.40;45.10
62363;DHT22;48396;48.426;1.500;2023-02-28T15:54:07;11.20;45.00
62363;DHT22;48396;48.426;1.500;2023-02-28T15:56:39;11.00;45.40
62363;DHT22;48396;48.426;1.500;2023-02-28T15:59:18;11.10;45.40
62363;DHT22;48396;48.426;1.500;2023-02-28T16:01:44;11.10;44.90
62363;DHT22;48396;48.426;1.500;2023-02-28T16:04:15;11.10;45.10
62363;DHT22;48396;48.426;1.500;2023-02-28T16:09:23;11.20;44.20
62363;DHT22;48396;48.426;1.500;2023-02-28T16:11:51;11.10;44.60
62363;DHT22;48396;48.426;1.500;2023-02-28T16:14:26;11.00;45.00
62363;DHT22;48396;48.426;1.500;2023-02-28T16:16:55;11.00;45.20
62363;DHT22;48396;48.426;1.500;2023-02-28T16:19:22;11.00;45.20
62363;DHT22;48396;48.426;1.500;2023-02-28T16:21:49;10.90;44.50
62363;DHT22;48396;48.426;1.500;2023-02-28T16:24:15;10.90;44.90
62363;DHT22;48396;48.426;1.500;2023-02-28T16:26:44;10.70;44.80
62363;DHT22;48396;48.426;1.500;2023-02-28T16:29:35;10.50;45.30
62363;DHT22;48396;48.426;1.500;2023-02-28T16:32:00;10.30;45.40
62363;DHT22;48396;48.426;1.500;2023-02-28T16:34:26;10.40;45.70
62363;DHT22;48396;48.426;1.500;2023-02-28T16:36:52;10.40;45.70
62363;DHT22;48396;48.426;1.500;2023-02-28T16:39:18;10.50;45.60
62363;DHT22;48396;48.426;1.500;2023-02-28T16:41:48;10.20;45.90
62363;DHT22;48396;48.426;1.500;2023-02-28T16:44:34;10.20;46.20
62363;DHT22;48396;48.426;1.500;2023-02-28T16:47:03;10.40;45.90
62363;DHT22;48396;48.426;1.500;2023-02-28T16:49:30;10.50;45.20
62363;DHT22;48396;48.426;1.500;2023-02-28T16:51:56;10.50;44.90
62363;DHT22;48396;48.426;1.500;2023-02-28T16:54:22;10.50;44.70
62363;DHT22;48396;48.426;1.500;2023-02-28T16:56:48;10.30;45.40
62363;DHT22;48396;48.426;1.500;2023-02-28T16:59:19;10.40;45.30
62363;DHT22;48396;48.426;1.500;2023-02-28T17:01:46;10.20;45.10
62363;DHT22;48396;48.426;1.500;2023-02-28T17:04:12;10.30;45.30
62363;DHT22;48396;48.426;1.500;2023-02-28T17:06:39;10.20;45.20
62363;DHT22;48396;48.426;1.500;2023-02-28T17:09:05;9.90;45.40
62363;DHT22;48396;48.426;1.500;2023-02-28T17:11:34;9.90;45.50
62363;DHT22;48396;48.426;1.500;2023-02-28T17:13:59;10.00;45.80
62363;DHT22;48396;48.426;1.500;2023-02-28T17:16:33;9.90;46.00
62363;DHT22;48396;48.426;1.500;2023-02-28T17:19:05;10.10;45.80
62363;DHT22;48396;48.426;1.500;2023-02-28T17:21:32;10.10;45.70
62363;DHT22;48396;48.426;1.500;2023-02-28T17:23:59;10.00;45.50
62363;DHT22;48396;48.426;1.500;2023-02-28T17:26:25;9.80;45.70
62363;DHT22;48396;48.426;1.500;2023-02-28T17:28:54;9.60;45.80
62363;DHT22;48396;48.426;1.500;2023-02-28T17:31:24;9.60;45.90
62363;DHT22;48396;48.426;1.500;2023-02-28T17:33:50;9.60;45.70
62363;DHT22;48396;48.426;1.500;2023-02-28T17:36:20;9.70;45.50
62363;DHT22;48396;48.426;1.500;2023-02-28T17:38:52;9.60;45.20
62363;DHT22;48396;48.426;1.500;2023-02-28T17:41:18;9.70;45.20
62363;DHT22;48396;48.426;1.500;2023-02-28T17:43:44;9.60;45.10
62363;DHT22;48396;48.426;1.500;2023-02-28T17:46:19;9.50;45.20
62363;DHT22;48396;48.426;1.500;2023-02-28T17:48:47;9.40;45.20
62363;DHT22;48396;48.426;1.500;2023-02-28T17:51:14;9.30;45.50
62363;DHT22;48396;48.426;1.500;2023-02-28T17:53:40;9.10;45.80
62363;DHT22;48396;48.426;1.500;2023-02-28T17:56:12;9.10;45.90
62363;DHT22;48396;48.426;1.500;2023-02-28T17:58:38;9.20;46.10
62363;DHT22;48396;48.426;1.500;2023-02-28T18:01:04;9.00;46.30
62363;DHT22;48396;48.426;1.500;2023-02-28T18:03:30;8.90;46.60
62363;DHT22;48396;48.426;1.500;2023-02-28T18:05:58;8.90;46.70
62363;DHT22;48396;48.426;1.500;2023-02-28T18:08:23;8.90;46.70
62363;DHT22;48396;48.426;1.500;2023-02-28T18:10:49;8.90;46.80
62363;DHT22;48396;48.426;1.500;2023-02-28T18:13:15;8.90;46.50
62363;DHT22;48396;48.426;1.500;2023-02-28T18:15:41;9.00;46.30
62363;DHT22;48396;48.426;1.500;2023-02-28T18:18:07;9.00;46.30
62363;DHT22;48396;48.426;1.500;2023-02-28T18:20:33;8.90;46.30
62363;DHT22;48396;48.426;1.500;2023-02-28T18:23:00;8.70;46.30
62363;DHT22;48396;48.426;1.500;2023-02-28T18:25:26;8.70;46.60
62363;DHT22;48396;48.426;1.500;2023-02-28T18:27:52;8.80;46.70
62363;DHT22;48396;48.426;1.500;2023-02-28T18:30:31;8.60;46.70
62363;DHT22;48396;48.426;1.500;2023-02-28T18:32:58;8.70;46.80
62363;DHT22;48396;48.426;1.500;2023-02-28T18:35:26;8.60;46.90